createdAt,value
2023-03-17T00:00:01.910Z,70
2023-03-17T00:10:02.913Z,71
2023-03-17T00:20:03.521Z,71
2023-03-17T00:30:04.151Z,71
2023-03-17T00:40:04.858Z,71
2023-03-17T00:50:05.856Z,72
2023-03-17T01:00:06.497Z,73
2023-03-17T01:10:06.624Z,73
2023-03-17T01:20:07.014Z,73
2023-03-17T01:30:07.731Z,73
2023-03-17T01:40:08.383Z,72
2023-03-17T01:50:08.619Z,70
2023-03-17T02:00:09.298Z,69
2023-03-17T02:20:11.187Z,70
2023-03-17T02:30:11.520Z,71
2023-03-17T02:40:12.127Z,72
2023-03-17T02:50:13.008Z,73
2023-03-17T03:10:14.095Z,75
2023-03-17T03:20:15.003Z,76
2023-03-17T03:30:15.364Z,77
2023-03-17T03:40:15.599Z,78
2023-03-17T03:50:15.940Z,79
2023-03-17T04:00:16.341Z,80
2023-03-17T04:10:17.266Z,81
2023-03-17T04:20:17.853Z,81
2023-03-17T04:30:18.019Z,82
2023-03-17T04:40:18.698Z,83
2023-03-17T05:10:20.714Z,85
2023-03-17T05:20:21.016Z,85
2023-03-17T05:30:21.249Z,85
2023-03-17T05:40:22.591Z,86
2023-03-17T05:50:22.540Z,86
2023-03-17T06:00:23.608Z,86
2023-03-17T06:10:24.654Z,86
2023-03-17T06:20:25.492Z,87
2023-03-17T06:30:25.900Z,87
2023-03-17T06:40:26.528Z,87
2023-03-17T06:50:26.964Z,87
2023-03-17T07:10:28.199Z,86
2023-03-17T07:20:28.663Z,85
2023-03-17T07:30:29.229Z,83
2023-03-17T07:40:29.422Z,79
2023-03-17T08:00:30.416Z,68
2023-03-17T08:10:30.546Z,64
2023-03-17T08:20:31.267Z,64
2023-03-17T08:30:33.500Z,61
2023-03-17T08:40:32.089Z,59
2023-03-17T08:50:32.158Z,58
2023-03-17T09:00:32.417Z,58
2023-03-17T09:20:33.862Z,56
2023-03-17T09:40:35.291Z,55
2023-03-17T09:50:35.861Z,56
2023-03-17T10:00:36.212Z,55
2023-03-17T10:10:36.783Z,54
2023-03-17T10:20:37.188Z,53
2023-03-17T10:30:37.570Z,52
2023-03-17T10:40:37.793Z,52
2023-03-17T10:50:38.170Z,52
2023-03-17T11:10:38.883Z,51
2023-03-17T11:20:39.574Z,50
2023-03-17T11:30:39.827Z,51
2023-03-17T11:40:40.275Z,51
2023-03-17T11:50:40.672Z,51
2023-03-17T12:10:41.166Z,50
2023-03-17T12:20:41.493Z,50
2023-03-17T12:30:42.523Z,50
2023-03-17T12:40:42.919Z,50
2023-03-17T12:50:43.133Z,50
2023-03-17T13:00:44.218Z,51
2023-03-17T13:10:45.145Z,50
2023-03-17T13:20:45.945Z,50
2023-03-17T13:30:46.576Z,50
2023-03-17T13:40:47.479Z,50
2023-03-17T13:50:47.598Z,51
2023-03-17T14:00:48.037Z,50
2023-03-17T14:10:48.988Z,50
2023-03-17T14:20:49.726Z,51
2023-03-17T14:30:50.099Z,51
2023-03-17T14:40:51.077Z,52
2023-03-17T14:50:51.222Z,51
2023-03-17T15:00:51.434Z,52
2023-03-17T15:10:51.742Z,51
2023-03-17T15:30:53.119Z,51
2023-03-17T15:40:53.794Z,52
2023-03-17T15:41:15.703Z,52
2023-03-17T15:50:59.809Z,53
2023-03-17T16:01:00.531Z,52
2023-03-17T16:11:01.463Z,53
2023-03-17T16:21:01.641Z,53
2023-03-17T16:31:02.728Z,54
2023-03-17T16:41:03.194Z,54
2023-03-17T16:51:03.629Z,54
2023-03-17T17:01:03.971Z,55
2023-03-17T17:11:04.592Z,56
2023-03-17T17:21:05.396Z,56
2023-03-17T17:31:05.763Z,56
2023-03-17T17:41:06.672Z,57
2023-03-17T17:51:07.450Z,57
2023-03-17T18:01:08.037Z,57
2023-03-17T18:11:08.208Z,56
2023-03-17T18:21:09.129Z,57
2023-03-17T18:31:09.911Z,56
2023-03-17T18:41:10.082Z,57
2023-03-17T18:51:10.843Z,58
2023-03-17T19:01:11.115Z,59
2023-03-17T19:11:11.487Z,60
2023-03-17T19:21:12.375Z,60
2023-03-17T19:31:13.190Z,60
2023-03-17T19:41:13.266Z,61
2023-03-17T19:51:13.991Z,62
2023-03-17T20:01:15.036Z,63
2023-03-17T20:21:16.399Z,65
2023-03-17T20:31:16.661Z,66
2023-03-17T20:41:16.809Z,66
2023-03-17T20:51:17.355Z,66
2023-03-17T21:01:20.419Z,66
2023-03-17T21:21:19.019Z,66
2023-03-17T21:31:19.401Z,65
2023-03-17T21:51:20.884Z,67
2023-03-17T22:11:22.615Z,69
2023-03-17T22:21:22.793Z,71
2023-03-17T22:41:24.362Z,73
2023-03-17T23:01:26.046Z,75
2023-03-17T23:11:26.607Z,75
2023-03-17T23:21:27.703Z,75
